Time;durP1;ratioP1;P1;durP2;ratioP2;P2;SDS_P1;SDS_P2;PMS_P1;PMS_P2;Temp;Humidity;BMP_temperature;BMP_pressure;BME280_temperature;BME280_humidity;BME280_pressure;Samples;Min_cycle;Max_cycle;Signal;HPM_P1;HPM_P2
2021/10/03 00:00:36;;;;;;;;;;;7.70;86.10;;;;;;4996018;28;19906;-89
2021/10/03 00:03:02;;;;;;;;;;;7.80;86.00;;;;;;4994547;28;19913;-90
2021/10/03 00:05:27;;;;;;;;;;;7.80;88.10;;;;;;4994501;28;19913;-87
2021/10/03 00:07:59;;;;;;;;;;;7.80;90.30;;;;;;5010539;23;20035;-87
2021/10/03 00:10:26;;;;;;;;;;;7.80;89.30;;;;;;4999254;28;19913;-86
2021/10/03 00:12:52;;;;;;;;;;;7.80;90.90;;;;;;4997754;28;19968;-86
2021/10/03 00:15:18;;;;;;;;;;;7.80;91.20;;;;;;4997387;28;19927;-85
2021/10/03 00:17:44;;;;;;;;;;;7.80;91.10;;;;;;4997476;28;20366;-86
2021/10/03 00:20:11;;;;;;;;;;;7.80;92.70;;;;;;4997426;28;20000;-85
2021/10/03 00:22:38;;;;;;;;;;;7.80;91.60;;;;;;5015133;28;19910;-87
2021/10/03 00:25:05;;;;;;;;;;;7.80;92.70;;;;;;4997392;28;20367;-87
2021/10/03 00:27:31;;;;;;;;;;;7.80;93.50;;;;;;4996687;28;19909;-86
2021/10/03 00:29:57;;;;;;;;;;;7.70;93.90;;;;;;4997035;28;19932;-87
2021/10/03 00:32:22;;;;;;;;;;;7.70;94.40;;;;;;4997359;28;20356;-87
2021/10/03 00:34:48;;;;;;;;;;;7.60;93.80;;;;;;4996771;28;19913;-87
2021/10/03 00:37:13;;;;;;;;;;;7.60;92.50;;;;;;4997052;28;19948;-87
2021/10/03 00:39:39;;;;;;;;;;;7.60;92.90;;;;;;4996919;28;19910;-87
2021/10/03 00:42:05;;;;;;;;;;;7.60;93.70;;;;;;4996880;28;19912;-87
2021/10/03 00:44:30;;;;;;;;;;;7.50;92.70;;;;;;4996853;28;19916;-87
2021/10/03 00:46:57;;;;;;;;;;;7.50;95.60;;;;;;4996880;28;19996;-87
2021/10/03 00:49:24;;;;;;;;;;;7.50;92.30;;;;;;4996994;28;19971;-87
2021/10/03 00:51:49;;;;;;;;;;;7.50;95.10;;;;;;4996819;28;19972;-87
2021/10/03 00:54:15;;;;;;;;;;;7.50;95.50;;;;;;4997146;28;19941;-87
2021/10/03 00:56:41;;;;;;;;;;;7.50;94.00;;;;;;4996781;28;19948;-88
2021/10/03 00:59:07;;;;;;;;;;;7.50;94.50;;;;;;4997007;28;19913;-86
2021/10/03 01:01:32;;;;;;;;;;;7.40;94.50;;;;;;4996893;28;20406;-88
2021/10/03 01:03:58;;;;;;;;;;;7.40;94.90;;;;;;4996858;28;19928;-86
2021/10/03 01:06:24;;;;;;;;;;;7.40;94.70;;;;;;4997048;28;19993;-87
2021/10/03 01:08:50;;;;;;;;;;;7.40;96.10;;;;;;4996063;28;19917;-87
2021/10/03 01:11:17;;;;;;;;;;;7.40;94.60;;;;;;5007511;23;19926;-86
2021/10/03 01:13:45;;;;;;;;;;;7.30;94.30;;;;;;5013838;28;19938;-88
2021/10/03 01:16:11;;;;;;;;;;;7.40;98.40;;;;;;4996121;28;20326;-86
2021/10/03 01:18:37;;;;;;;;;;;7.40;92.90;;;;;;4996101;28;19910;-88
2021/10/03 01:21:04;;;;;;;;;;;7.40;95.60;;;;;;4996239;28;19913;-87
2021/10/03 01:23:29;;;;;;;;;;;7.40;96.80;;;;;;4996123;28;20386;-88
2021/10/03 01:25:55;;;;;;;;;;;7.40;96.50;;;;;;4996239;28;19910;-87
2021/10/03 01:28:21;;;;;;;;;;;7.40;96.90;;;;;;4996086;28;19917;-85
2021/10/03 01:30:48;;;;;;;;;;;7.40;94.50;;;;;;4995854;28;19916;-86
2021/10/03 01:33:14;;;;;;;;;;;7.40;95.30;;;;;;4996383;28;19969;-87
2021/10/03 01:35:39;;;;;;;;;;;7.40;95.70;;;;;;4996086;28;19917;-87
2021/10/03 01:38:05;;;;;;;;;;;7.40;91.80;;;;;;5013531;28;20338;-87
2021/10/03 01:40:31;;;;;;;;;;;7.40;94.30;;;;;;4998555;28;19909;-87
2021/10/03 01:42:58;;;;;;;;;;;7.40;93.70;;;;;;4999863;28;19910;-87
2021/10/03 01:45:24;;;;;;;;;;;7.50;93.20;;;;;;4999877;28;19963;-88
2021/10/03 01:48:05;;;;;;;;;;;7.50;96.80;;;;;;4999752;28;20001;-88
2021/10/03 01:50:30;;;;;;;;;;;7.50;96.70;;;;;;4999765;28;19909;-87
2021/10/03 01:52:56;;;;;;;;;;;7.40;96.60;;;;;;4999612;28;19992;-87
2021/10/03 01:55:22;;;;;;;;;;;7.40;96.70;;;;;;4999403;28;20376;-87
2021/10/03 01:57:47;;;;;;;;;;;7.40;96.40;;;;;;4999558;28;19917;-87
2021/10/03 02:00:13;;;;;;;;;;;7.40;96.90;;;;;;4999504;28;19913;-87
2021/10/03 02:02:39;;;;;;;;;;;7.40;99.10;;;;;;4999715;28;19928;-88
2021/10/03 02:05:05;;;;;;;;;;;7.40;98.70;;;;;;4999462;28;20370;-88
2021/10/03 02:07:30;;;;;;;;;;;7.30;99.90;;;;;;4999504;28;19916;-88
2021/10/03 02:09:57;;;;;;;;;;;7.30;96.70;;;;;;5010819;23;19922;-90
2021/10/03 02:12:23;;;;;;;;;;;7.30;99.20;;;;;;5017281;28;19912;-89
2021/10/03 02:14:48;;;;;;;;;;;7.20;99.10;;;;;;5017572;28;19917;-90
2021/10/03 02:17:14;;;;;;;;;;;7.20;98.90;;;;;;5017200;28;19913;-90
2021/10/03 02:19:40;;;;;;;;;;;7.10;98.40;;;;;;5017857;28;19913;-90
2021/10/03 02:22:09;;;;;;;;;;;7.10;98.40;;;;;;5017380;28;20283;-90
2021/10/03 02:24:35;;;;;;;;;;;7.10;98.50;;;;;;5017587;28;20000;-90
2021/10/03 02:27:01;;;;;;;;;;;7.00;99.50;;;;;;4999997;28;20264;-89
2021/10/03 02:29:27;;;;;;;;;;;7.00;99.60;;;;;;5017662;28;19913;-88
2021/10/03 02:31:54;;;;;;;;;;;6.90;99.90;;;;;;4999500;28;19996;-90
2021/10/03 02:34:20;;;;;;;;;;;6.90;99.90;;;;;;5017585;28;19910;-90
2021/10/03 02:36:46;;;;;;;;;;;6.80;99.60;;;;;;5017087;28;20324;-90
2021/10/03 02:39:12;;;;;;;;;;;6.80;99.90;;;;;;4999632;28;19913;-91
2021/10/03 02:41:38;;;;;;;;;;;6.80;99.90;;;;;;4999468;28;19905;-88
2021/10/03 02:44:05;;;;;;;;;;;6.80;99.90;;;;;;5016949;28;20326;-88
2021/10/03 02:46:31;;;;;;;;;;;6.80;99.90;;;;;;4999357;28;19906;-89
2021/10/03 02:48:57;;;;;;;;;;;6.70;99.90;;;;;;4999438;28;20348;-87
2021/10/03 02:51:24;;;;;;;;;;;6.80;99.90;;;;;;4998882;28;19913;-86
2021/10/03 02:53:52;;;;;;;;;;;6.80;99.90;;;;;;4999324;28;19917;-88
2021/10/03 02:56:19;;;;;;;;;;;6.80;99.90;;;;;;5016910;28;19928;-89
2021/10/03 02:58:44;;;;;;;;;;;6.80;99.90;;;;;;5016328;28;19992;-88
2021/10/03 03:01:10;;;;;;;;;;;6.80;99.90;;;;;;4999046;28;20339;-88
2021/10/03 03:03:36;;;;;;;;;;;6.80;99.90;;;;;;4999046;28;19941;-89
2021/10/03 03:06:06;;;;;;;;;;;6.90;99.90;;;;;;4998977;28;19928;-88
2021/10/03 03:08:32;;;;;;;;;;;6.80;99.90;;;;;;5027826;22;19987;-75
2021/10/03 03:10:58;;;;;;;;;;;6.90;99.90;;;;;;5015917;28;20367;-75
2021/10/03 03:13:23;;;;;;;;;;;6.90;99.90;;;;;;5016105;28;19913;-76
2021/10/03 03:15:49;;;;;;;;;;;6.90;99.90;;;;;;5016044;28;19968;-73
2021/10/03 03:18:14;;;;;;;;;;;6.90;99.70;;;;;;5015657;28;19913;-76
2021/10/03 03:20:40;;;;;;;;;;;6.90;99.90;;;;;;4998174;28;19905;-73
2021/10/03 03:23:05;;;;;;;;;;;6.90;99.90;;;;;;5015798;28;19913;-73
2021/10/03 03:25:31;;;;;;;;;;;6.80;98.00;;;;;;5015660;28;19906;-73
2021/10/03 03:27:57;;;;;;;;;;;6.80;99.90;;;;;;5015641;28;19913;-76
2021/10/03 03:30:22;;;;;;;;;;;6.80;99.30;;;;;;4997939;28;19906;-74
2021/10/03 03:32:48;;;;;;;;;;;6.80;99.90;;;;;;4997930;28;19980;-75
2021/10/03 03:35:14;;;;;;;;;;;6.80;99.50;;;;;;4997713;28;20287;-75
2021/10/03 03:37:40;;;;;;;;;;;6.80;99.90;;;;;;5015477;28;19921;-74
2021/10/03 03:40:06;;;;;;;;;;;6.90;99.90;;;;;;4997707;28;20290;-74
2021/10/03 03:42:32;;;;;;;;;;;6.80;99.90;;;;;;5015353;28;19920;-74
2021/10/03 03:44:58;;;;;;;;;;;6.80;99.90;;;;;;5015157;28;19993;-74
2021/10/03 03:47:23;;;;;;;;;;;6.80;99.90;;;;;;5015207;28;20382;-74
2021/10/03 03:49:51;;;;;;;;;;;6.70;99.90;;;;;;4997416;28;19912;-74
2021/10/03 03:52:20;;;;;;;;;;;6.70;99.90;;;;;;5015131;28;19905;-74
2021/10/03 03:54:45;;;;;;;;;;;6.60;99.90;;;;;;4997365;28;19905;-74
2021/10/03 03:57:11;;;;;;;;;;;6.60;99.90;;;;;;4997386;28;19922;-74
2021/10/03 03:59:37;;;;;;;;;;;6.60;99.90;;;;;;5014904;28;19913;-74
2021/10/03 04:02:02;;;;;;;;;;;6.60;99.90;;;;;;4996418;28;20015;-74
2021/10/03 04:04:28;;;;;;;;;;;6.60;99.90;;;;;;4997162;28;19951;-74
2021/10/03 04:06:54;;;;;;;;;;;6.60;99.90;;;;;;5014734;28;19906;-74
2021/10/03 04:09:19;;;;;;;;;;;6.50;99.90;;;;;;5005408;23;19928;-74
2021/10/03 04:11:45;;;;;;;;;;;6.50;99.90;;;;;;4995035;28;19912;-74
2021/10/03 04:14:10;;;;;;;;;;;6.50;99.90;;;;;;4995260;28;19920;-75
2021/10/03 04:16:36;;;;;;;;;;;6.50;99.90;;;;;;4995042;28;19939;-75
2021/10/03 04:19:02;;;;;;;;;;;6.50;99.90;;;;;;4995161;28;20334;-76
2021/10/03 04:21:27;;;;;;;;;;;6.40;99.90;;;;;;4993780;28;19910;-75
2021/10/03 04:23:53;;;;;;;;;;;6.50;99.90;;;;;;4995038;28;19956;-75
2021/10/03 04:26:18;;;;;;;;;;;6.50;99.90;;;;;;4993687;28;19910;-75
2021/10/03 04:28:44;;;;;;;;;;;6.50;99.90;;;;;;4994951;28;19957;-75
2021/10/03 04:31:09;;;;;;;;;;;6.50;99.90;;;;;;4994868;28;19910;-75
2021/10/03 04:33:35;;;;;;;;;;;6.50;99.90;;;;;;4994946;28;19963;-75
2021/10/03 04:36:01;;;;;;;;;;;6.70;99.90;;;;;;4993424;28;19925;-75
2021/10/03 04:38:26;;;;;;;;;;;6.70;99.90;;;;;;4994562;28;19916;-76
2021/10/03 04:40:52;;;;;;;;;;;6.90;99.90;;;;;;4993444;28;19909;-75
2021/10/03 04:43:17;;;;;;;;;;;7.00;99.00;;;;;;4993343;28;19964;-76
2021/10/03 04:45:43;;;;;;;;;;;7.10;99.90;;;;;;4994609;28;20020;-75
2021/10/03 04:48:08;;;;;;;;;;;7.20;99.30;;;;;;4993141;28;19912;-75
2021/10/03 04:50:34;;;;;;;;;;;7.40;99.90;;;;;;4994579;28;19917;-75
2021/10/03 04:52:59;;;;;;;;;;;7.50;99.90;;;;;;4994386;28;19905;-75
2021/10/03 04:55:25;;;;;;;;;;;7.60;99.90;;;;;;4993378;28;19917;-75
2021/10/03 04:57:50;;;;;;;;;;;7.80;99.90;;;;;;4993140;28;20296;-75
2021/10/03 05:00:16;;;;;;;;;;;7.90;99.90;;;;;;4993283;28;19917;-75
2021/10/03 05:02:41;;;;;;;;;;;8.10;99.90;;;;;;4993158;28;19909;-75
2021/10/03 05:05:07;;;;;;;;;;;8.20;99.90;;;;;;4994628;28;19909;-74
2021/10/03 05:07:33;;;;;;;;;;;8.40;95.30;;;;;;4994222;28;19917;-76
2021/10/03 05:10:00;;;;;;;;;;;8.50;96.10;;;;;;5007756;23;20385;-75
2021/10/03 05:12:26;;;;;;;;;;;8.70;99.60;;;;;;4996241;28;19906;-76
2021/10/03 05:14:51;;;;;;;;;;;8.80;94.90;;;;;;5013986;28;19917;-75
2021/10/03 05:17:17;;;;;;;;;;;8.90;97.10;;;;;;5013664;28;19913;-76
2021/10/03 05:19:43;;;;;;;;;;;9.00;94.30;;;;;;5013609;28;20314;-75
2021/10/03 05:22:08;;;;;;;;;;;9.20;95.20;;;;;;4996142;28;19906;-75
2021/10/03 05:24:34;;;;;;;;;;;9.30;95.50;;;;;;5014080;28;19919;-75
2021/10/03 05:26:59;;;;;;;;;;;9.40;95.60;;;;;;4996095;28;20279;-75
2021/10/03 05:29:25;;;;;;;;;;;9.60;96.60;;;;;;5013809;28;19972;-76
2021/10/03 05:31:51;;;;;;;;;;;9.90;97.90;;;;;;4996030;28;19912;-76
2021/10/03 05:34:16;;;;;;;;;;;10.70;99.80;;;;;;4996031;28;19952;-76
2021/10/03 05:36:42;;;;;;;;;;;11.40;98.60;;;;;;5013554;28;19924;-76
2021/10/03 05:39:07;;;;;;;;;;;12.30;97.20;;;;;;4995992;28;20326;-75
2021/10/03 05:41:33;;;;;;;;;;;13.10;93.70;;;;;;5013613;28;20358;-76
2021/10/03 05:43:58;;;;;;;;;;;14.10;90.70;;;;;;5013631;28;19914;-77
2021/10/03 05:46:24;;;;;;;;;;;14.90;87.60;;;;;;5013506;28;19951;-76
2021/10/03 05:48:49;;;;;;;;;;;15.60;83.20;;;;;;5013298;28;20264;-75
2021/10/03 05:51:15;;;;;;;;;;;16.20;79.00;;;;;;5013548;28;19905;-76
2021/10/03 05:53:41;;;;;;;;;;;16.80;76.90;;;;;;4995871;28;20377;-75
2021/10/03 05:56:07;;;;;;;;;;;17.40;76.50;;;;;;4995721;28;19913;-76
2021/10/03 05:58:33;;;;;;;;;;;17.60;72.30;;;;;;5013315;28;20237;-76
2021/10/03 06:00:59;;;;;;;;;;;17.70;70.20;;;;;;4995765;28;19948;-76
2021/10/03 06:03:24;;;;;;;;;;;18.00;69.30;;;;;;5013347;28;20007;-76
2021/10/03 06:05:50;;;;;;;;;;;18.30;68.60;;;;;;4995509;28;19905;-75
2021/10/03 06:10:46;;;;;;;;;;;19.00;66.40;;;;;;5030210;28;19952;-76
2021/10/03 06:13:12;;;;;;;;;;;19.10;64.40;;;;;;5033108;28;19955;-76
2021/10/03 06:15:42;;;;;;;;;;;18.90;63.30;;;;;;5032958;28;19913;-75
2021/10/03 06:18:12;;;;;;;;;;;18.50;63.10;;;;;;5015211;28;20266;-74
2021/10/03 06:20:37;;;;;;;;;;;18.70;65.20;;;;;;5032951;28;19912;-75
2021/10/03 06:23:03;;;;;;;;;;;18.60;63.80;;;;;;5032757;28;19948;-75
2021/10/03 06:25:28;;;;;;;;;;;18.20;63.20;;;;;;5015903;28;19948;-74
2021/10/03 06:27:54;;;;;;;;;;;17.90;63.90;;;;;;5018617;28;19913;-75
2021/10/03 06:30:21;;;;;;;;;;;17.60;63.70;;;;;;5018923;28;19913;-76
2021/10/03 06:32:47;;;;;;;;;;;17.30;63.40;;;;;;5036652;28;19921;-76
2021/10/03 06:35:13;;;;;;;;;;;17.00;64.10;;;;;;5036680;28;19916;-76
2021/10/03 06:37:38;;;;;;;;;;;16.80;64.10;;;;;;5018570;28;19915;-75
2021/10/03 06:40:05;;;;;;;;;;;16.60;64.40;;;;;;5036518;28;19956;-76
2021/10/03 06:42:31;;;;;;;;;;;16.60;64.60;;;;;;5036067;28;20035;-76
2021/10/03 06:44:56;;;;;;;;;;;16.40;64.10;;;;;;5018487;28;19909;-75
2021/10/03 06:47:22;;;;;;;;;;;16.30;64.60;;;;;;5018340;28;19913;-76
2021/10/03 06:49:47;;;;;;;;;;;16.40;65.20;;;;;;5018422;28;20343;-76
2021/10/03 06:52:13;;;;;;;;;;;16.60;64.80;;;;;;5018310;28;19909;-76
2021/10/03 06:54:39;;;;;;;;;;;16.80;64.30;;;;;;5018297;28;19916;-77
2021/10/03 06:57:04;;;;;;;;;;;17.00;63.90;;;;;;5018119;28;19917;-77
2021/10/03 06:59:31;;;;;;;;;;;17.00;63.50;;;;;;5018263;28;19909;-75
2021/10/03 07:01:58;;;;;;;;;;;17.10;63.70;;;;;;5035810;28;19916;-76
2021/10/03 07:04:24;;;;;;;;;;;17.00;64.10;;;;;;5035945;28;20371;-77
2021/10/03 07:06:49;;;;;;;;;;;16.90;63.30;;;;;;5018028;28;19909;-77
2021/10/03 07:09:15;;;;;;;;;;;16.70;63.30;;;;;;5040708;22;19921;-77
2021/10/03 07:11:41;;;;;;;;;;;16.50;63.50;;;;;;5015859;28;19905;-77
2021/10/03 07:14:06;;;;;;;;;;;16.30;64.00;;;;;;5016022;28;20004;-76
2021/10/03 07:16:32;;;;;;;;;;;16.10;64.70;;;;;;5015762;28;20319;-76
2021/10/03 07:18:57;;;;;;;;;;;16.20;64.90;;;;;;5015786;28;19909;-76
2021/10/03 07:21:23;;;;;;;;;;;16.60;65.30;;;;;;4998185;28;19909;-76
2021/10/03 07:23:48;;;;;;;;;;;17.10;64.70;;;;;;5015694;28;19916;-76
2021/10/03 07:26:14;;;;;;;;;;;17.40;63.70;;;;;;5015655;28;20001;-76
2021/10/03 07:28:40;;;;;;;;;;;17.60;63.30;;;;;;4997752;28;19913;-76
2021/10/03 07:31:05;;;;;;;;;;;18.20;62.80;;;;;;4997887;28;19980;-76
2021/10/03 07:33:31;;;;;;;;;;;18.70;61.60;;;;;;5015476;28;19913;-77
2021/10/03 07:35:57;;;;;;;;;;;19.20;61.00;;;;;;4997767;28;19917;-76
2021/10/03 07:38:22;;;;;;;;;;;19.50;60.50;;;;;;5015322;28;19917;-75
2021/10/03 07:40:48;;;;;;;;;;;19.70;60.10;;;;;;4997792;28;19909;-75
2021/10/03 07:43:13;;;;;;;;;;;19.80;59.40;;;;;;5015263;28;20359;-77
2021/10/03 07:45:39;;;;;;;;;;;19.90;58.90;;;;;;5015223;28;20294;-76
2021/10/03 07:48:05;;;;;;;;;;;20.00;58.40;;;;;;4997164;28;19905;-76
2021/10/03 07:50:31;;;;;;;;;;;20.30;58.00;;;;;;4997346;28;20410;-76
2021/10/03 07:52:56;;;;;;;;;;;20.40;56.80;;;;;;5014912;28;19913;-76
2021/10/03 07:55:28;;;;;;;;;;;20.40;56.00;;;;;;4997183;28;19936;-76
2021/10/03 07:57:54;;;;;;;;;;;20.50;55.70;;;;;;5014606;28;19909;-76
2021/10/03 08:00:20;;;;;;;;;;;20.40;55.80;;;;;;4997555;28;19936;-75
2021/10/03 08:02:45;;;;;;;;;;;21.00;56.50;;;;;;4997136;28;20363;-77
2021/10/03 08:05:12;;;;;;;;;;;21.70;54.40;;;;;;5015034;28;20316;-76
2021/10/03 08:07:38;;;;;;;;;;;21.90;52.80;;;;;;5014716;28;19909;-76
2021/10/03 08:10:05;;;;;;;;;;;22.20;53.80;;;;;;5004953;23;20280;-76
2021/10/03 08:12:31;;;;;;;;;;;22.80;52.80;;;;;;4996521;28;19909;-77
2021/10/03 08:14:57;;;;;;;;;;;22.80;49.10;;;;;;4996483;28;19921;-76
2021/10/03 08:17:22;;;;;;;;;;;21.80;49.70;;;;;;4995719;28;19914;-75
2021/10/03 08:19:48;;;;;;;;;;;21.00;49.70;;;;;;4995648;28;19917;-76
2021/10/03 08:22:13;;;;;;;;;;;20.40;51.70;;;;;;4994960;28;20379;-76
2021/10/03 08:24:39;;;;;;;;;;;20.30;52.40;;;;;;4995243;28;19921;-76
2021/10/03 08:27:05;;;;;;;;;;;20.30;53.40;;;;;;4993595;28;19906;-75
2021/10/03 08:29:30;;;;;;;;;;;20.10;52.20;;;;;;4995201;28;20339;-76
2021/10/03 08:31:56;;;;;;;;;;;20.10;52.90;;;;;;4994744;28;19914;-76
2021/10/03 08:34:22;;;;;;;;;;;20.10;52.30;;;;;;4994568;28;19925;-75
2021/10/03 08:36:47;;;;;;;;;;;20.00;52.20;;;;;;4993285;28;19920;-75
2021/10/03 08:39:13;;;;;;;;;;;20.10;51.80;;;;;;4994767;28;19914;-76
2021/10/03 08:41:38;;;;;;;;;;;20.10;51.30;;;;;;4993470;28;19936;-75
2021/10/03 08:44:04;;;;;;;;;;;20.00;51.50;;;;;;4994658;28;20352;-75
2021/10/03 08:46:29;;;;;;;;;;;20.00;51.30;;;;;;4994425;28;19910;-75
2021/10/03 08:48:56;;;;;;;;;;;20.10;51.00;;;;;;4993752;28;20051;-76
2021/10/03 08:51:22;;;;;;;;;;;20.50;50.40;;;;;;4994438;28;19906;-76
2021/10/03 08:53:48;;;;;;;;;;;21.10;49.50;;;;;;4994506;28;19913;-75
2021/10/03 08:56:13;;;;;;;;;;;21.20;47.40;;;;;;4994426;28;20291;-77
2021/10/03 08:58:39;;;;;;;;;;;21.30;47.20;;;;;;4994231;28;19913;-76
2021/10/03 09:01:05;;;;;;;;;;;21.70;47.00;;;;;;4992968;28;19956;-75
2021/10/03 09:03:31;;;;;;;;;;;22.20;47.60;;;;;;4992659;28;19920;-75
2021/10/03 09:06:02;;;;;;;;;;;23.40;47.10;;;;;;4992990;28;19905;-76
2021/10/03 09:08:28;;;;;;;;;;;24.60;46.30;;;;;;4992798;28;20008;-77
2021/10/03 09:10:56;;;;;;;;;;;25.90;45.80;;;;;;4994517;28;20278;-75
2021/10/03 09:13:27;;;;;;;;;;;26.60;43.80;;;;;;4992966;28;19928;-76
2021/10/03 09:16:08;;;;;;;;;;;27.30;43.40;;;;;;4994619;28;19913;-77
2021/10/03 09:18:36;;;;;;;;;;;27.50;41.20;;;;;;4995147;28;20016;-76
2021/10/03 09:21:02;;;;;;;;;;;27.50;41.00;;;;;;4992840;28;20000;-76
2021/10/03 09:23:28;;;;;;;;;;;27.60;40.10;;;;;;4994528;28;19913;-75
2021/10/03 09:25:53;;;;;;;;;;;27.60;39.20;;;;;;4995093;28;19927;-75
2021/10/03 09:28:25;;;;;;;;;;;27.90;39.00;;;;;;4994034;28;20033;-76
2021/10/03 09:31:01;;;;;;;;;;;28.20;39.40;;;;;;4993297;28;19905;-77
2021/10/03 09:34:02;;;;;;;;;;;28.30;37.70;;;;;;4993853;28;19920;-76
2021/10/03 09:36:32;;;;;;;;;;;28.40;36.50;;;;;;4953495;29;19922;-76
2021/10/03 09:38:59;;;;;;;;;;;28.50;36.20;;;;;;4982399;28;20016;-75
2021/10/03 09:41:42;;;;;;;;;;;28.80;36.40;;;;;;4993471;28;20371;-76
2021/10/03 09:44:08;;;;;;;;;;;29.00;37.20;;;;;;4995191;28;19961;-76
2021/10/03 09:46:35;;;;;;;;;;;29.20;35.70;;;;;;4993150;28;19905;-76
2021/10/03 09:49:02;;;;;;;;;;;28.70;34.40;;;;;;4992793;28;19950;-76
2021/10/03 09:51:28;;;;;;;;;;;28.30;34.60;;;;;;4993960;28;19913;-76
2021/10/03 09:53:54;;;;;;;;;;;28.40;35.80;;;;;;4994210;28;19914;-75
2021/10/03 09:56:20;;;;;;;;;;;28.60;35.40;;;;;;4992659;28;19921;-75
2021/10/03 09:58:46;;;;;;;;;;;28.60;35.00;;;;;;4992826;28;19913;-76
2021/10/03 10:01:12;;;;;;;;;;;28.80;35.80;;;;;;4995690;28;19929;-76
2021/10/03 10:03:38;;;;;;;;;;;28.80;34.90;;;;;;4997139;28;19913;-76
2021/10/03 10:06:04;;;;;;;;;;;28.80;35.00;;;;;;4998215;28;19913;-77
2021/10/03 10:08:31;;;;;;;;;;;28.70;34.50;;;;;;4996638;28;19913;-78
2021/10/03 10:11:02;;;;;;;;;;;28.60;33.80;;;;;;5025676;23;19921;-85
2021/10/03 10:13:28;;;;;;;;;;;28.60;34.50;;;;;;5017155;28;19914;-86
2021/10/03 10:15:54;;;;;;;;;;;28.70;34.50;;;;;;5016633;28;20410;-84
2021/10/03 10:18:24;;;;;;;;;;;28.70;34.50;;;;;;5016941;28;19909;-84
2021/10/03 10:20:50;;;;;;;;;;;29.10;34.50;;;;;;4999247;28;19913;-85
2021/10/03 10:23:18;;;;;;;;;;;29.20;32.70;;;;;;4999054;28;19905;-86
2021/10/03 10:25:48;;;;;;;;;;;29.10;33.00;;;;;;5016555;28;19910;-84
2021/10/03 10:28:22;;;;;;;;;;;29.30;33.90;;;;;;4999225;28;19905;-84
2021/10/03 10:31:00;;;;;;;;;;;29.40;33.80;;;;;;4998808;28;19937;-85
2021/10/03 10:33:25;;;;;;;;;;;29.80;33.00;;;;;;5016507;28;19910;-84
2021/10/03 10:36:11;;;;;;;;;;;29.60;32.90;;;;;;5016264;28;19921;-84
2021/10/03 10:38:36;;;;;;;;;;;29.80;32.70;;;;;;5014549;28;19909;-85
2021/10/03 10:41:22;;;;;;;;;;;29.60;32.10;;;;;;4997756;28;19964;-85
2021/10/03 10:43:47;;;;;;;;;;;29.90;32.00;;;;;;4997937;28;19909;-85
2021/10/03 10:46:33;;;;;;;;;;;30.10;32.20;;;;;;5014812;28;19944;-84
2021/10/03 10:49:17;;;;;;;;;;;29.90;31.70;;;;;;4997299;28;19913;-85
2021/10/03 10:51:42;;;;;;;;;;;29.60;31.50;;;;;;5014353;28;20033;-84
2021/10/03 10:54:14;;;;;;;;;;;29.40;32.00;;;;;;5014289;28;19952;-85
2021/10/03 10:56:40;;;;;;;;;;;29.50;32.60;;;;;;4997765;28;19940;-82
2021/10/03 10:59:07;;;;;;;;;;;29.50;31.80;;;;;;5016054;28;19918;-84
2021/10/03 11:01:33;;;;;;;;;;;29.20;31.90;;;;;;5016072;28;19945;-83
2021/10/03 11:04:00;;;;;;;;;;;29.00;31.70;;;;;;4998171;28;19956;-84
2021/10/03 11:06:31;;;;;;;;;;;28.90;32.70;;;;;;5016042;28;19916;-82
2021/10/03 11:11:34;;;;;;;;;;;29.40;32.80;;;;;;5029590;22;19921;-75
2021/10/03 11:14:05;;;;;;;;;;;29.50;32.20;;;;;;5015822;28;20367;-74
2021/10/03 11:16:31;;;;;;;;;;;29.80;32.20;;;;;;4996042;28;20434;-74
2021/10/03 11:18:58;;;;;;;;;;;29.60;33.00;;;;;;4996105;28;20004;-75
2021/10/03 11:21:24;;;;;;;;;;;29.80;33.00;;;;;;4996606;28;19914;-75
2021/10/03 11:23:50;;;;;;;;;;;29.60;31.70;;;;;;4996044;28;19916;-75
2021/10/03 11:26:15;;;;;;;;;;;29.60;31.90;;;;;;4978669;28;19914;-75
2021/10/03 11:28:47;;;;;;;;;;;29.80;31.80;;;;;;4978592;28;19918;-75
2021/10/03 11:31:13;;;;;;;;;;;29.90;31.70;;;;;;4996319;28;19921;-75
2021/10/03 11:33:46;;;;;;;;;;;29.50;31.80;;;;;;4995890;28;20062;-75
2021/10/03 11:36:11;;;;;;;;;;;29.60;32.50;;;;;;4978462;28;19928;-75
2021/10/03 11:38:46;;;;;;;;;;;29.60;32.30;;;;;;4995817;28;19906;-75
2021/10/03 11:41:12;;;;;;;;;;;29.60;32.40;;;;;;4996190;28;19913;-75
2021/10/03 11:43:37;;;;;;;;;;;29.50;32.20;;;;;;4995550;28;20019;-75
2021/10/03 11:46:06;;;;;;;;;;;29.20;32.70;;;;;;4995408;28;19918;-75
2021/10/03 11:48:32;;;;;;;;;;;28.90;33.30;;;;;;4978058;28;19906;-75
2021/10/03 11:50:57;;;;;;;;;;;28.70;34.30;;;;;;4995806;28;19914;-75
2021/10/03 11:53:27;;;;;;;;;;;28.80;34.40;;;;;;4978103;28;19906;-75
2021/10/03 11:56:04;;;;;;;;;;;29.10;34.00;;;;;;4995547;28;20279;-75
2021/10/03 11:58:34;;;;;;;;;;;28.90;33.90;;;;;;4995422;28;19916;-75
2021/10/03 12:01:01;;;;;;;;;;;28.90;34.80;;;;;;4995139;28;19917;-75
2021/10/03 12:03:29;;;;;;;;;;;29.20;34.30;;;;;;4995158;28;20272;-75
2021/10/03 12:05:56;;;;;;;;;;;29.30;33.10;;;;;;4977773;28;20017;-76
2021/10/03 12:08:22;;;;;;;;;;;28.80;32.90;;;;;;4977330;28;19913;-76
2021/10/03 12:10:51;;;;;;;;;;;28.60;32.80;;;;;;4996708;28;19921;-75
2021/10/03 12:13:17;;;;;;;;;;;28.40;33.70;;;;;;4995078;28;19917;-75
2021/10/03 12:15:44;;;;;;;;;;;28.70;34.00;;;;;;4995248;28;19914;-75
2021/10/03 12:18:11;;;;;;;;;;;29.00;33.40;;;;;;4995068;28;20014;-75
2021/10/03 12:20:55;;;;;;;;;;;29.10;33.50;;;;;;4994849;28;20360;-77
2021/10/03 12:23:22;;;;;;;;;;;29.20;33.70;;;;;;4976777;28;19936;-79
2021/10/03 12:25:52;;;;;;;;;;;29.80;32.70;;;;;;4977264;28;19909;-76
2021/10/03 12:28:18;;;;;;;;;;;29.60;32.10;;;;;;4994795;28;19910;-76
2021/10/03 12:30:46;;;;;;;;;;;29.40;32.20;;;;;;4977501;28;19910;-76
2021/10/03 12:33:12;;;;;;;;;;;29.30;32.00;;;;;;4994725;28;20291;-76
2021/10/03 12:35:57;;;;;;;;;;;29.40;32.60;;;;;;4977239;28;19918;-76
2021/10/03 12:38:23;;;;;;;;;;;29.90;33.10;;;;;;4977266;28;19917;-76
2021/10/03 12:40:48;;;;;;;;;;;29.80;32.00;;;;;;4994481;28;19909;-76
2021/10/03 12:43:14;;;;;;;;;;;29.60;32.20;;;;;;4994733;28;20394;-76
2021/10/03 12:45:39;;;;;;;;;;;29.40;32.00;;;;;;4994747;28;20378;-76
2021/10/03 12:48:05;;;;;;;;;;;29.40;32.00;;;;;;4994553;28;20364;-76
2021/10/03 12:50:30;;;;;;;;;;;29.10;31.70;;;;;;4994655;28;19916;-77
2021/10/03 12:52:56;;;;;;;;;;;28.80;31.60;;;;;;4994444;28;19972;-76
2021/10/03 12:55:22;;;;;;;;;;;28.50;31.90;;;;;;4994521;28;19913;-76
2021/10/03 12:57:47;;;;;;;;;;;28.20;32.40;;;;;;4976951;28;19920;-75
2021/10/03 13:00:13;;;;;;;;;;;28.40;32.10;;;;;;4976773;28;19910;-75
2021/10/03 13:02:38;;;;;;;;;;;28.30;32.70;;;;;;4976729;28;20371;-75
2021/10/03 13:05:05;;;;;;;;;;;28.50;32.30;;;;;;4976675;28;20288;-76
2021/10/03 13:07:31;;;;;;;;;;;28.30;32.50;;;;;;4994178;28;20386;-76
2021/10/03 13:09:56;;;;;;;;;;;28.20;32.60;;;;;;4995553;28;19909;-76
2021/10/03 13:12:22;;;;;;;;;;;27.90;32.50;;;;;;4976722;28;19912;-75
2021/10/03 13:14:48;;;;;;;;;;;27.30;33.40;;;;;;4994300;28;19914;-75
2021/10/03 13:17:13;;;;;;;;;;;27.30;33.30;;;;;;4994093;28;19960;-75
2021/10/03 13:19:39;;;;;;;;;;;27.20;33.50;;;;;;4994188;28;20225;-76
2021/10/03 13:22:04;;;;;;;;;;;27.00;33.10;;;;;;4994238;28;19905;-76
2021/10/03 13:24:30;;;;;;;;;;;26.70;33.30;;;;;;4994107;28;19972;-77
2021/10/03 13:26:55;;;;;;;;;;;26.50;33.60;;;;;;4994165;28;20327;-76
2021/10/03 13:29:21;;;;;;;;;;;26.40;33.70;;;;;;4976662;28;20751;-76
2021/10/03 13:31:47;;;;;;;;;;;26.30;33.50;;;;;;4993969;28;19914;-76
2021/10/03 13:34:12;;;;;;;;;;;25.80;34.20;;;;;;4976762;28;19906;-76
2021/10/03 13:36:38;;;;;;;;;;;25.60;34.30;;;;;;4997799;28;20422;-76
2021/10/03 13:39:04;;;;;;;;;;;25.70;34.40;;;;;;4980130;28;19929;-76
2021/10/03 13:41:30;;;;;;;;;;;26.00;34.00;;;;;;4980398;28;19913;-77
2021/10/03 13:43:55;;;;;;;;;;;26.10;34.00;;;;;;4980378;28;20360;-76
2021/10/03 13:46:21;;;;;;;;;;;26.20;33.90;;;;;;4980494;28;20308;-75
2021/10/03 13:48:47;;;;;;;;;;;26.10;34.00;;;;;;4997722;28;20323;-75
2021/10/03 13:51:12;;;;;;;;;;;25.50;34.40;;;;;;4980399;28;20379;-76
2021/10/03 13:53:38;;;;;;;;;;;25.10;34.80;;;;;;4980256;28;19909;-75
2021/10/03 13:56:04;;;;;;;;;;;24.70;35.20;;;;;;4997975;28;20386;-76
2021/10/03 13:58:29;;;;;;;;;;;24.50;35.60;;;;;;4980083;28;19914;-75
2021/10/03 14:00:55;;;;;;;;;;;24.80;35.40;;;;;;4979973;28;19909;-76
2021/10/03 14:03:21;;;;;;;;;;;24.90;35.30;;;;;;4997642;28;20418;-76
2021/10/03 14:05:46;;;;;;;;;;;24.70;35.40;;;;;;4997721;28;20008;-75
2021/10/03 14:08:12;;;;;;;;;;;24.40;35.50;;;;;;4997287;28;19949;-75
2021/10/03 14:10:37;;;;;;;;;;;24.20;35.90;;;;;;5021896;23;19922;-91
2021/10/03 14:13:03;;;;;;;;;;;24.20;35.60;;;;;;5004290;28;19905;-91
2021/10/03 14:15:29;;;;;;;;;;;24.40;36.10;;;;;;5004611;28;20381;-91
2021/10/03 14:17:55;;;;;;;;;;;24.80;35.20;;;;;;5005587;28;19917;-91
2021/10/03 14:20:21;;;;;;;;;;;25.10;35.20;;;;;;5003223;28;19983;-91
2021/10/03 14:22:47;;;;;;;;;;;25.30;35.10;;;;;;5003569;28;19912;-90